Time;durP1;ratioP1;P1;durP2;ratioP2;P2;SDS_P1;SDS_P2;PMS_P1;PMS_P2;Temp;Humidity;BMP_temperature;BMP_pressure;BME280_temperature;BME280_humidity;BME280_pressure;Samples;Min_cycle;Max_cycle;Signal;HPM_P1;HPM_P2
2023/08/23 00:02:25;;;;;;;6.33;3.20;;;;;;;16.78;95.79;101862.25;5286377;28;20054;-76
2023/08/23 00:04:56;;;;;;;6.63;3.67;;;;;;;16.72;96.40;101864.13;5286409;28;20116;-74
2023/08/23 00:07:28;;;;;;;4.53;3.50;;;;;;;16.68;96.13;101858.09;5286518;28;20029;-74
2023/08/23 00:09:59;;;;;;;9.37;3.97;;;;;;;16.65;96.36;101857.28;5286568;28;20035;-76
2023/08/23 00:12:31;;;;;;;7.37;3.43;;;;;;;16.56;96.83;101853.91;5286624;28;20032;-75
2023/08/23 00:15:02;;;;;;;5.23;3.13;;;;;;;16.54;97.26;101855.72;5268519;28;20145;-75
2023/08/23 00:17:34;;;;;;;5.72;3.40;;;;;;;16.43;97.70;101851.59;5286659;28;20060;-75
2023/08/23 00:20:06;;;;;;;5.70;3.40;;;;;;;16.35;97.76;101854.38;5286580;28;20111;-75
2023/08/23 00:22:37;;;;;;;8.25;3.63;;;;;;;16.31;97.93;101855.31;5286364;28;20029;-76
2023/08/23 00:25:09;;;;;;;5.63;3.57;;;;;;;16.36;97.57;101853.47;5268659;28;20032;-77
2023/08/23 00:27:40;;;;;;;6.90;3.67;;;;;;;16.18;97.84;101854.69;5286109;28;20036;-75
2023/08/23 00:30:12;;;;;;;6.57;3.43;;;;;;;16.28;98.09;101852.75;5286205;28;20431;-75
2023/08/23 00:32:43;;;;;;;10.67;4.00;;;;;;;16.35;97.57;101849.09;5285723;28;20502;-75
2023/08/23 00:35:15;;;;;;;6.37;3.53;;;;;;;16.30;97.92;101845.69;5286234;28;20263;-75
2023/08/23 00:37:46;;;;;;;6.73;3.67;;;;;;;16.30;97.95;101836.03;5286144;28;20028;-75
2023/08/23 00:40:18;;;;;;;6.47;3.77;;;;;;;16.26;97.96;101834.38;5286336;28;20040;-75
2023/08/23 00:42:50;;;;;;;8.35;3.28;;;;;;;16.13;98.51;101832.88;5286184;28;20065;-76
2023/08/23 00:45:21;;;;;;;6.97;3.80;;;;;;;16.10;99.06;101833.81;5286836;28;20094;-76
2023/08/23 00:47:52;;;;;;;6.80;3.70;;;;;;;16.11;99.31;101826.78;5287187;28;20419;-76
2023/08/23 00:50:24;;;;;;;5.47;3.20;;;;;;;16.04;99.50;101828.66;5286790;28;20038;-76
2023/08/23 00:52:55;;;;;;;6.20;3.37;;;;;;;16.06;99.48;101824.22;5287037;28;20131;-76
2023/08/23 00:55:27;;;;;;;7.50;3.50;;;;;;;16.06;99.66;101826.84;5286887;28;20055;-75
2023/08/23 00:57:58;;;;;;;7.43;3.90;;;;;;;16.00;99.73;101827.84;5286103;28;20072;-75
2023/08/23 01:00:33;;;;;;;5.90;3.53;;;;;;;15.93;100.00;101828.84;5286412;28;20123;-76
2023/08/23 01:03:04;;;;;;;7.00;4.07;;;;;;;15.95;100.00;101829.69;5285332;28;20060;-76
2023/08/23 01:06:18;;;;;;;5.33;3.20;;;;;;;15.87;100.00;101821.06;5285784;28;20056;-76
2023/08/23 01:09:13;;;;;;;5.95;3.30;;;;;;;15.78;100.00;101827.38;5180372;28;20404;-75
2023/08/23 01:12:03;;;;;;;8.52;3.25;;;;;;;15.81;100.00;101826.44;5285589;28;20032;-76
2023/08/23 01:14:41;;;;;;;6.07;2.95;;;;;;;15.83;100.00;101829.94;5285524;28;20032;-76
2023/08/23 01:17:15;;;;;;;5.18;3.58;;;;;;;15.73;100.00;101833.56;5285576;28;20161;-76
2023/08/23 01:19:49;;;;;;;6.45;3.10;;;;;;;15.66;100.00;101827.53;5285348;28;20487;-76
2023/08/23 01:22:22;;;;;;;6.15;3.03;;;;;;;15.64;100.00;101834.59;5285175;28;20029;-75
2023/08/23 01:24:54;;;;;;;4.93;3.03;;;;;;;15.55;100.00;101832.13;5285231;28;20483;-75
2023/08/23 01:27:26;;;;;;;5.37;3.33;;;;;;;15.48;100.00;101826.97;5285179;28;20032;-76
2023/08/23 01:29:58;;;;;;;4.85;2.88;;;;;;;15.49;100.00;101830.47;5285023;28;20032;-75
2023/08/23 01:32:48;;;;;;;6.17;3.30;;;;;;;15.50;100.00;101843.59;5284364;28;20028;-76
2023/08/23 01:35:25;;;;;;;8.52;3.10;;;;;;;15.47;100.00;101838.38;5285288;28;20028;-75
2023/08/23 01:37:59;;;;;;;6.22;3.08;;;;;;;15.40;100.00;101835.88;5285042;28;20119;-76
2023/08/23 01:40:31;;;;;;;6.80;3.83;;;;;;;15.43;100.00;101831.44;5284726;28;20035;-76
2023/08/23 01:43:03;;;;;;;4.82;2.90;;;;;;;15.44;100.00;101834.91;5285108;28;20040;-75
2023/08/23 01:45:34;;;;;;;7.90;3.57;;;;;;;15.42;100.00;101818.31;5284702;28;20383;-75
2023/08/23 01:48:06;;;;;;;5.63;3.20;;;;;;;15.28;100.00;101810.69;5284950;28;20111;-75
2023/08/23 01:50:37;;;;;;;6.32;3.30;;;;;;;15.31;100.00;101816.75;5284209;28;20028;-76
2023/08/23 01:53:08;;;;;;;6.33;3.50;;;;;;;15.30;100.00;101812.38;5284340;28;20070;-75
2023/08/23 01:55:40;;;;;;;4.23;3.10;;;;;;;15.28;100.00;101815.94;5286340;28;20051;-75
2023/08/23 01:58:11;;;;;;;6.43;3.00;;;;;;;15.17;100.00;101820.50;5284280;28;20509;-75
2023/08/23 02:00:47;;;;;;;5.87;3.33;;;;;;;15.09;100.00;101825.84;5283992;28;20365;-76
2023/08/23 02:03:18;;;;;;;7.97;3.45;;;;;;;15.04;100.00;101823.28;5284246;28;20491;-75
2023/08/23 02:05:50;;;;;;;4.60;2.87;;;;;;;15.05;100.00;101818.91;5284351;28;20032;-76
2023/08/23 02:08:21;;;;;;;6.80;3.70;;;;;;;14.89;100.00;101823.50;5284303;28;20032;-75
2023/08/23 02:10:52;;;;;;;4.50;3.20;;;;;;;14.89;100.00;101815.63;5283959;28;20024;-75
2023/08/23 02:13:24;;;;;;;6.67;3.20;;;;;;;14.86;100.00;101824.44;5284156;28;20423;-75
2023/08/23 02:15:55;;;;;;;9.87;3.37;;;;;;;14.79;100.00;101817.50;5284397;28;20058;-75
2023/08/23 02:18:27;;;;;;;6.03;3.17;;;;;;;14.77;100.00;101819.28;5284070;28;20039;-75
2023/08/23 02:20:59;;;;;;;5.00;3.43;;;;;;;14.70;100.00;101821.13;5284216;28;20029;-76
2023/08/23 02:23:30;;;;;;;5.93;4.05;;;;;;;14.67;100.00;101823.81;5284024;28;20044;-76
2023/08/23 02:26:01;;;;;;;4.10;3.20;;;;;;;14.65;100.00;101824.69;5283912;28;20395;-76
2023/08/23 02:28:33;;;;;;;7.03;3.47;;;;;;;14.65;100.00;101815.09;5265758;28;20468;-75
2023/08/23 02:31:04;;;;;;;6.13;3.23;;;;;;;14.60;100.00;101814.25;5266002;28;20115;-75
2023/08/23 02:33:35;;;;;;;6.23;3.20;;;;;;;14.53;100.00;101805.56;5265458;28;20443;-75
2023/08/23 02:36:07;;;;;;;5.03;3.63;;;;;;;14.49;100.00;101817.00;5265862;28;20039;-75
2023/08/23 02:38:38;;;;;;;5.27;3.37;;;;;;;14.51;100.00;101817.84;5265591;28;20033;-75
2023/08/23 02:41:10;;;;;;;4.90;3.57;;;;;;;14.47;100.00;101823.16;5283884;28;20116;-76
2023/08/23 02:43:42;;;;;;;4.53;3.00;;;;;;;14.47;100.00;101816.13;5283745;28;20469;-76
2023/08/23 02:46:13;;;;;;;6.45;3.92;;;;;;;14.43;100.00;101811.84;5283869;28;20456;-75
2023/08/23 02:48:45;;;;;;;6.90;4.77;;;;;;;14.43;100.00;101816.22;5283585;28;20038;-75
2023/08/23 02:51:16;;;;;;;5.13;3.90;;;;;;;14.38;100.00;101824.16;5283555;28;20058;-75
2023/08/23 02:53:47;;;;;;;5.57;3.60;;;;;;;14.33;100.00;101818.94;5283835;28;20024;-76
2023/08/23 02:56:19;;;;;;;5.93;3.93;;;;;;;14.26;100.00;101801.53;5287632;28;20049;-75
2023/08/23 02:58:50;;;;;;;7.60;4.30;;;;;;;14.25;100.00;101805.06;5283559;28;20085;-76
2023/08/23 03:01:21;;;;;;;4.63;3.30;;;;;;;14.15;100.00;101796.44;5282755;28;20028;-76
2023/08/23 03:03:53;;;;;;;6.23;3.97;;;;;;;14.20;100.00;101792.00;5282844;28;20035;-76
2023/08/23 03:06:24;;;;;;;7.83;3.50;;;;;;;14.14;100.00;101793.84;5283721;28;20032;-75
2023/08/23 03:08:55;;;;;;;9.77;3.30;;;;;;;14.13;100.00;101792.94;5283419;28;20036;-75
2023/08/23 03:11:27;;;;;;;5.77;3.10;;;;;;;14.11;100.00;101799.97;5265553;28;20032;-75
2023/08/23 03:13:58;;;;;;;7.93;3.50;;;;;;;14.06;100.00;101801.78;5265462;28;20043;-76
2023/08/23 03:16:30;;;;;;;6.83;3.27;;;;;;;14.06;100.00;101804.41;5283087;28;20036;-76
2023/08/23 03:19:01;;;;;;;8.90;3.30;;;;;;;14.00;100.00;101797.44;5283294;28;20396;-76
2023/08/23 03:21:32;;;;;;;10.43;3.20;;;;;;;14.06;100.00;101793.06;5283270;28;20032;-76
2023/08/23 03:24:04;;;;;;;5.33;3.30;;;;;;;14.01;100.00;101795.72;5265580;28;20115;-76
2023/08/23 03:26:35;;;;;;;6.33;3.20;;;;;;;13.97;100.00;101794.84;5283190;28;20044;-76
2023/08/23 03:29:07;;;;;;;6.00;2.80;;;;;;;14.01;100.00;101786.09;5283436;28;20029;-75
2023/08/23 03:31:39;;;;;;;6.00;2.92;;;;;;;13.91;100.00;101789.72;5283378;28;20036;-76
2023/08/23 03:34:10;;;;;;;5.03;3.27;;;;;;;13.96;100.00;101789.63;5282947;28;20082;-76
2023/08/23 03:36:41;;;;;;;4.57;3.07;;;;;;;13.87;100.00;101788.00;5283120;28;20040;-75
2023/08/23 03:39:13;;;;;;;5.77;3.43;;;;;;;13.85;100.00;101795.88;5283216;28;20060;-76
2023/08/23 03:41:44;;;;;;;4.00;3.20;;;;;;;13.89;100.00;101803.69;5283001;28;20525;-77
2023/08/23 03:44:15;;;;;;;7.73;3.07;;;;;;;13.83;100.00;101800.25;5282839;28;20024;-75
2023/08/23 03:46:47;;;;;;;3.90;2.93;;;;;;;13.83;100.00;101791.53;5282782;28;20033;-75
2023/08/23 03:49:18;;;;;;;5.70;2.77;;;;;;;13.84;100.00;101788.03;5264942;28;20028;-75
2023/08/23 03:51:50;;;;;;;6.90;3.23;;;;;;;13.97;100.00;101786.13;5282978;28;20028;-75
2023/08/23 03:54:21;;;;;;;6.07;3.00;;;;;;;13.97;100.00;101794.00;5282962;28;20059;-75
2023/08/23 03:56:53;;;;;;;5.33;2.93;;;;;;;13.98;100.00;101795.75;5286734;28;20057;-75
2023/08/23 03:59:24;;;;;;;5.17;2.67;;;;;;;14.01;100.00;101799.19;5282894;28;20094;-76
2023/08/23 04:01:56;;;;;;;6.67;3.03;;;;;;;13.99;100.00;101793.13;5282902;28;20107;-75
2023/08/23 04:04:27;;;;;;;8.77;3.20;;;;;;;14.07;100.00;101795.66;5282249;28;20036;-75
2023/08/23 04:06:58;;;;;;;3.83;2.87;;;;;;;14.10;100.00;101795.59;5282635;28;20428;-76
2023/08/23 04:09:30;;;;;;;6.87;3.20;;;;;;;14.13;100.00;101798.19;5282867;28;20091;-76
2023/08/23 04:12:01;;;;;;;7.83;3.10;;;;;;;14.18;100.00;101799.03;5282845;28;20040;-76
2023/08/23 04:14:33;;;;;;;3.30;2.40;;;;;;;14.16;100.00;101792.91;5268708;28;20040;-76
2023/08/23 04:17:04;;;;;;;6.20;3.40;;;;;;;14.09;100.00;101799.13;5286614;28;20029;-76
2023/08/23 04:19:36;;;;;;;5.43;2.93;;;;;;;13.99;100.00;101808.84;5286463;28;20031;-76
2023/08/23 04:22:07;;;;;;;4.57;2.80;;;;;;;13.94;100.00;101796.66;5286361;28;20476;-77
2023/08/23 04:24:38;;;;;;;6.47;3.03;;;;;;;13.94;100.00;101800.16;5286727;28;20032;-77
2023/08/23 04:27:10;;;;;;;5.83;3.10;;;;;;;13.85;100.00;101802.88;5286407;28;20112;-77
2023/08/23 04:29:41;;;;;;;7.87;3.87;;;;;;;13.82;100.00;101810.75;5286095;28;20032;-77
2023/08/23 04:32:13;;;;;;;5.30;2.90;;;;;;;13.81;100.00;101802.03;5285786;28;20028;-76
2023/08/23 04:34:44;;;;;;;7.67;3.20;;;;;;;13.80;100.00;101809.91;5286275;28;20029;-76
2023/08/23 04:37:16;;;;;;;5.87;3.20;;;;;;;13.73;100.00;101809.09;5286118;28;20203;-77
2023/08/23 04:39:48;;;;;;;;;;;;;;;13.81;100.00;101817.75;5286774;28;20456;-76
2023/08/23 04:42:19;;;;;;;6.20;3.30;;;;;;;13.82;100.00;101809.00;5285701;28;19912;-77
2023/08/23 04:44:50;;;;;;;6.83;3.43;;;;;;;13.89;100.00;101806.31;5286181;28;20040;-77
2023/08/23 04:47:22;;;;;;;5.40;3.33;;;;;;;13.92;100.00;101814.16;5264743;28;20021;-76
2023/08/23 04:49:54;;;;;;;6.70;3.73;;;;;;;13.89;100.00;101809.81;5265012;28;20104;-76
2023/08/23 04:52:27;;;;;;;;;;;;;;;13.97;100.00;101809.72;5265756;28;20376;-77
2023/08/23 04:54:58;;;;;;;5.85;3.58;;;;;;;14.01;100.00;101803.59;5247329;28;20356;-77
2023/08/23 04:57:30;;;;;;;9.37;4.03;;;;;;;14.01;100.00;101799.19;5264731;28;20118;-77
2023/08/23 05:00:02;;;;;;;5.70;3.50;;;;;;;14.14;100.00;101804.31;5265172;28;20037;-77
2023/08/23 05:02:33;;;;;;;7.30;4.40;;;;;;;14.25;100.00;101802.44;5246495;28;20102;-76
2023/08/23 05:05:06;;;;;;;9.67;3.80;;;;;;;14.09;100.00;101812.22;5264784;28;20082;-77
2023/08/23 05:07:37;;;;;;;;;;;;;;;14.36;100.00;101807.53;5265139;28;20457;-77
2023/08/23 05:10:09;;;;;;;6.53;3.40;;;;;;;14.40;100.00;101806.63;5264668;28;19916;-77
2023/08/23 05:12:40;;;;;;;6.93;3.38;;;;;;;14.51;100.00;101802.09;5264609;28;20032;-77
2023/08/23 05:15:12;;;;;;;7.27;3.60;;;;;;;14.57;100.00;101799.41;5264616;28;20118;-77
2023/08/23 05:17:43;;;;;;;6.23;3.70;;;;;;;14.62;100.00;101796.75;5264226;28;20032;-78
2023/08/23 05:20:15;;;;;;;5.53;3.63;;;;;;;14.62;100.00;101788.00;5264394;28;20388;-77
2023/08/23 05:22:46;;;;;;;5.63;3.33;;;;;;;14.64;100.00;101786.25;5264473;28;20116;-77
2023/08/23 05:25:18;;;;;;;7.23;4.00;;;;;;;14.58;100.00;101790.63;5263660;28;20380;-77
2023/08/23 05:27:49;;;;;;;7.17;4.27;;;;;;;14.54;100.00;101794.19;5264262;28;20037;-77
2023/08/23 05:30:21;;;;;;;13.50;4.80;;;;;;;14.53;100.00;101794.22;5264801;28;20044;-77
2023/08/23 05:32:52;;;;;;;6.00;3.43;;;;;;;14.53;100.00;101800.31;5263297;28;20033;-77
2023/08/23 05:35:23;;;;;;;4.40;3.37;;;;;;;14.49;100.00;101796.03;5264235;28;20091;-77
2023/08/23 05:37:55;;;;;;;6.53;3.90;;;;;;;14.48;100.00;101804.78;5264201;28;20025;-77
2023/08/23 05:40:26;;;;;;;6.80;4.63;;;;;;;14.47;100.00;101803.03;5263720;28;20061;-78
2023/08/23 05:42:57;;;;;;;7.53;4.17;;;;;;;14.44;100.00;101802.19;5245983;28;20493;-77
2023/08/23 05:45:29;;;;;;;7.80;3.47;;;;;;;14.46;100.00;101808.28;5246378;28;20025;-77
2023/08/23 05:48:00;;;;;;;6.07;3.80;;;;;;;14.38;100.00;101808.41;5263906;28;20502;-77
2023/08/23 05:50:32;;;;;;;7.47;3.70;;;;;;;14.43;100.00;101809.22;5263989;28;20044;-78
2023/08/23 05:53:09;;;;;;;6.93;4.03;;;;;;;14.48;100.00;101812.63;5246199;28;20036;-76
2023/08/23 05:55:40;;;;;;;8.80;4.55;;;;;;;14.52;100.00;101810.84;5263875;28;20033;-78
2023/08/23 05:58:12;;;;;;;7.20;4.50;;;;;;;14.61;100.00;101813.38;5263914;28;20507;-78
2023/08/23 06:00:45;;;;;;;7.93;4.03;;;;;;;14.65;100.00;101815.09;5263721;28;20029;-77
2023/08/23 06:03:19;;;;;;;8.55;4.35;;;;;;;14.81;100.00;101818.38;5264069;28;20060;-78
2023/08/23 06:05:54;;;;;;;8.75;4.70;;;;;;;14.84;100.00;101820.06;5265491;28;20479;-77
2023/08/23 06:08:26;;;;;;;7.65;5.50;;;;;;;14.93;100.00;101822.56;5266080;28;20504;-77
2023/08/23 06:10:57;;;;;;;9.47;5.83;;;;;;;15.04;100.00;101822.44;5266123;28;20127;-77
2023/08/23 06:13:29;;;;;;;11.53;5.57;;;;;;;15.07;100.00;101818.00;5250282;28;20037;-80
2023/08/23 06:16:00;;;;;;;8.03;6.00;;;;;;;15.17;100.00;101817.88;5273524;28;20037;-77
2023/08/23 06:18:32;;;;;;;12.83;6.90;;;;;;;15.29;100.00;101821.16;5274759;28;20033;-76
2023/08/23 06:21:03;;;;;;;10.00;6.80;;;;;;;15.38;100.00;101828.00;5274220;28;20056;-77
2023/08/23 06:23:36;;;;;;;8.10;6.80;;;;;;;15.48;100.00;101824.34;5255435;28;20108;-77
2023/08/23 06:26:08;;;;;;;11.52;7.00;;;;;;;15.66;100.00;101828.44;5256802;28;20040;-77
2023/08/23 06:28:39;;;;;;;9.83;7.63;;;;;;;15.76;100.00;101825.63;5255494;28;20025;-77
2023/08/23 06:31:20;;;;;;;11.87;8.27;;;;;;;15.91;100.00;101827.16;5272084;28;20037;-77
2023/08/23 06:33:52;;;;;;;13.25;9.18;;;;;;;15.99;100.00;101826.09;5271297;28;20032;-77
2023/08/23 06:36:24;;;;;;;15.48;9.20;;;;;;;16.12;100.00;101825.88;5271566;28;20025;-78
2023/08/23 06:38:55;;;;;;;16.37;10.07;;;;;;;16.20;100.00;101822.19;5270963;28;20045;-78
2023/08/23 06:41:26;;;;;;;18.27;10.43;;;;;;;16.34;100.00;101823.69;5271204;28;20095;-78
2023/08/23 06:44:00;;;;;;;15.67;10.13;;;;;;;16.46;100.00;101830.47;5251994;28;20040;-78
2023/08/23 06:46:32;;;;;;;14.13;9.27;;;;;;;16.54;100.00;101829.41;5268749;28;20055;-75
2023/08/23 06:49:04;;;;;;;12.73;8.07;;;;;;;16.65;100.00;101825.69;5266065;28;20029;-76
2023/08/23 06:51:35;;;;;;;9.63;7.25;;;;;;;16.73;100.00;101823.75;5264919;28;20511;-78
2023/08/23 06:54:07;;;;;;;10.83;7.00;;;;;;;16.86;100.00;101834.91;5248182;28;20025;-78
2023/08/23 06:56:38;;;;;;;12.27;7.17;;;;;;;16.96;100.00;101833.78;5265193;28;20029;-77
2023/08/23 06:59:10;;;;;;;11.10;6.83;;;;;;;17.09;100.00;101837.88;5263925;28;20040;-77
2023/08/23 07:01:41;;;;;;;11.27;6.97;;;;;;;17.18;100.00;101844.72;5246846;28;20530;-78
2023/08/23 07:04:12;;;;;;;11.30;7.23;;;;;;;17.26;100.00;101850.66;5245611;28;20116;-77
2023/08/23 07:06:44;;;;;;;11.53;7.47;;;;;;;17.42;100.00;101856.44;5263888;28;20033;-77
2023/08/23 07:09:15;;;;;;;10.43;7.00;;;;;;;17.46;100.00;101858.06;5264033;28;20033;-77
2023/08/23 07:11:47;;;;;;;13.80;7.37;;;;;;;17.62;100.00;101861.19;5262758;28;20029;-78
2023/08/23 07:14:18;;;;;;;11.13;8.20;;;;;;;17.73;99.27;101860.09;5263311;28;20455;-78
2023/08/23 07:16:50;;;;;;;11.47;7.53;;;;;;;17.85;97.83;101859.75;5263077;28;20415;-77
2023/08/23 07:19:21;;;;;;;10.13;7.80;;;;;;;17.94;97.99;101866.59;5263470;28;20132;-78
2023/08/23 07:21:52;;;;;;;27.67;9.53;;;;;;;18.10;95.69;101865.28;5263052;28;20021;-78
2023/08/23 07:24:24;;;;;;;17.63;7.93;;;;;;;18.22;95.12;101867.59;5262637;28;20025;-77
2023/08/23 07:26:55;;;;;;;12.77;6.80;;;;;;;18.34;92.96;101871.66;5244782;28;20037;-78
2023/08/23 07:29:27;;;;;;;9.70;6.30;;;;;;;18.50;89.23;101873.84;5245209;28;20128;-78
2023/08/23 07:31:59;;;;;;;8.13;5.13;;;;;;;18.56;87.70;101874.56;5245165;28;20063;-78
2023/08/23 07:34:30;;;;;;;7.88;6.53;;;;;;;18.63;89.35;101872.59;5262658;28;20098;-77
2023/08/23 07:37:01;;;;;;;9.07;6.47;;;;;;;18.75;87.64;101877.50;5262330;28;20491;-78
2023/08/23 07:39:34;;;;;;;12.03;6.90;;;;;;;18.80;88.27;101880.00;5262141;28;20396;-79
2023/08/23 07:42:06;;;;;;;10.50;6.03;;;;;;;19.02;88.41;101871.50;5262264;28;20033;-78
2023/08/23 07:44:37;;;;;;;9.33;5.80;;;;;;;19.09;86.07;101868.63;5262618;28;20048;-78
2023/08/23 07:47:09;;;;;;;10.13;5.57;;;;;;;19.20;84.81;101880.63;5245085;28;20047;-77
2023/08/23 07:49:40;;;;;;;8.87;5.93;;;;;;;19.22;84.65;101882.28;5248617;28;20427;-78
2023/08/23 07:52:13;;;;;;;8.87;6.50;;;;;;;19.33;82.21;101884.59;5266866;28;20056;-79
2023/08/23 07:54:44;;;;;;;21.52;6.28;;;;;;;19.36;81.57;101891.56;5266856;28;20276;-78
2023/08/23 07:57:15;;;;;;;15.93;6.47;;;;;;;19.54;83.33;101883.03;5266467;28;20057;-77
2023/08/23 07:59:47;;;;;;;8.43;6.57;;;;;;;19.59;83.05;101883.72;5266420;28;20040;-78
2023/08/23 08:02:18;;;;;;;9.43;6.13;;;;;;;19.77;83.05;101876.13;5266075;28;20029;-77
2023/08/23 08:04:50;;;;;;;9.77;5.10;;;;;;;19.90;80.12;101882.75;5266757;28;20431;-79
2023/08/23 08:07:21;;;;;;;9.43;5.77;;;;;;;20.01;77.82;101879.72;5266006;28;20061;-77
2023/08/23 08:09:53;;;;;;;9.33;5.43;;;;;;;20.08;77.78;101877.75;5248018;28;20056;-78
2023/08/23 08:12:24;;;;;;;9.40;6.13;;;;;;;20.16;75.81;101880.97;5248076;28;20083;-78
2023/08/23 08:14:56;;;;;;;10.30;6.38;;;;;;;20.24;75.21;101881.56;5247822;28;20031;-78
2023/08/23 08:17:27;;;;;;;9.20;5.97;;;;;;;20.21;74.24;101884.31;5248192;28;20025;-76
2023/08/23 08:20:00;;;;;;;7.10;4.87;;;;;;;20.39;73.61;101881.00;5247927;28;20040;-76
2023/08/23 08:22:32;;;;;;;7.38;4.15;;;;;;;20.44;72.06;101887.91;5265810;28;20029;-78
2023/08/23 08:25:05;;;;;;;7.40;4.90;;;;;;;20.46;71.33;101881.63;5265913;28;20035;-77
2023/08/23 08:27:36;;;;;;;11.85;5.10;;;;;;;20.68;71.95;101883.53;5265888;28;20048;-77
2023/08/23 08:30:08;;;;;;;7.03;5.17;;;;;;;20.73;70.02;101887.72;5248065;28;20041;-78
2023/08/23 08:32:39;;;;;;;8.95;5.57;;;;;;;20.83;70.19;101885.56;5265617;28;20056;-78
2023/08/23 08:35:11;;;;;;;7.43;5.43;;;;;;;20.91;69.57;101887.94;5266174;28;20473;-78
2023/08/23 08:37:43;;;;;;;8.23;4.80;;;;;;;21.00;70.44;101873.47;5265797;28;20028;-78
2023/08/23 08:40:16;;;;;;;5.97;3.75;;;;;;;21.01;67.52;101875.19;5265232;28;20033;-78
2023/08/23 08:42:52;;;;;;;8.82;4.85;;;;;;;21.20;67.56;101873.53;5265808;28;20090;-78
2023/08/23 08:45:24;;;;;;;8.13;5.47;;;;;;;21.14;67.26;101876.44;5265590;28;20028;-77
2023/08/23 08:47:55;;;;;;;8.18;4.47;;;;;;;21.36;68.36;101879.06;5247572;28;20499;-77
2023/08/23 08:50:33;;;;;;;7.17;4.10;;;;;;;21.42;67.50;101872.66;5265888;28;20121;-78
2023/08/23 08:53:09;;;;;;;5.25;3.85;;;;;;;21.60;68.59;101879.88;5267918;28;20032;-77
2023/08/23 08:55:42;;;;;;;6.35;4.28;;;;;;;21.85;66.06;101876.22;5271469;28;20111;-79
2023/08/23 08:58:19;;;;;;;7.15;4.07;;;;;;;21.74;65.29;101883.78;5276663;28;20124;-77
2023/08/23 09:00:52;;;;;;;6.00;4.10;;;;;;;21.84;63.67;101883.28;5288474;28;20468;-79
2023/08/23 09:03:25;;;;;;;9.23;3.20;;;;;;;21.86;64.07;101872.59;5287435;28;20472;-77
2023/08/23 09:05:57;;;;;;;;;;;;;;;22.19;66.46;101878.25;5285574;28;20077;-77
2023/08/23 09:08:28;;;;;;;6.67;4.00;;;;;;;22.25;65.66;101885.09;5286379;28;20002;-78
2023/08/23 09:11:02;;;;;;;9.43;4.57;;;;;;;22.42;65.78;101878.19;5284082;28;20055;-77
2023/08/23 09:13:36;;;;;;;14.23;4.55;;;;;;;22.66;66.90;101865.56;5284113;28;20029;-77
2023/08/23 09:16:12;;;;;;;14.32;4.85;;;;;;;22.72;64.83;101874.13;5284251;28;20033;-76
2023/08/23 09:18:45;;;;;;;11.77;4.53;;;;;;;23.08;65.94;101869.81;5285641;28;20056;-78
2023/08/23 09:21:19;;;;;;;;;;;;;;;23.29;65.86;101873.22;5284388;28;20036;-79
2023/08/23 09:23:54;;;;;;;20.17;5.95;;;;;;;22.93;61.59;101876.69;5285829;28;19916;-78
2023/08/23 09:26:26;;;;;;;20.55;5.25;;;;;;;23.13;61.99;101875.75;5285589;28;20025;-78
2023/08/23 09:28:57;;;;;;;17.83;6.67;;;;;;;23.63;58.59;101880.38;5285640;28;20028;-79
2023/08/23 09:31:28;;;;;;;20.97;6.77;;;;;;;24.60;56.90;101878.97;5285141;28;20095;-78
2023/08/23 09:34:00;;;;;;;16.57;7.27;;;;;;;25.03;54.69;101887.25;5283526;28;20032;-78
2023/08/23 09:36:40;;;;;;;11.07;6.20;;;;;;;25.60;52.00;101895.56;5285278;28;20456;-79
2023/08/23 09:39:12;;;;;;;10.80;6.95;;;;;;;26.70;52.45;101888.94;5285032;28;20036;-79
2023/08/23 09:41:43;;;;;;;14.63;5.82;;;;;;;27.67;49.18;101895.16;5284587;28;20025;-80
2023/08/23 09:44:16;;;;;;;11.87;5.20;;;;;;;28.25;45.16;101883.09;5284905;28;20040;-78
2023/08/23 09:46:50;;;;;;;10.60;5.85;;;;;;;28.57;44.12;101874.63;5284811;28;20270;-78
2023/08/23 09:49:23;;;;;;;14.40;6.40;;;;;;;27.76;43.91;101873.94;5284647;28;20035;-78
2023/08/23 09:51:55;;;;;;;8.88;4.80;;;;;;;28.27;44.03;101873.16;5284676;28;20035;-78
2023/08/23 09:54:38;;;;;;;9.43;5.00;;;;;;;28.65;45.84;101874.91;5284757;28;20028;-77
2023/08/23 09:57:10;;;;;;;8.82;4.63;;;;;;;29.23;44.23;101867.09;5278384;28;20120;-79
2023/08/23 09:59:42;;;;;;;;;;;;;;;30.92;43.16;101866.44;5263913;28;20159;-79
2023/08/23 10:02:17;;;;;;;8.52;4.93;;;;;;;29.89;40.03;101884.56;5263581;28;19921;-79
2023/08/23 10:04:50;;;;;;;8.38;5.55;;;;;;;29.69;39.79;101878.00;5263538;28;20108;-79
2023/08/23 10:07:23;;;;;;;13.32;6.65;;;;;;;28.91;40.70;101875.69;5263803;28;20118;-79
2023/08/23 10:09:54;;;;;;;9.70;5.32;;;;;;;29.03;42.26;101873.06;5263614;28;20036;-79
2023/08/23 10:12:26;;;;;;;13.68;5.10;;;;;;;29.31;40.20;101876.44;5263309;28;20037;-79
2023/08/23 10:14:59;;;;;;;9.98;5.65;;;;;;;29.70;41.77;101866.31;5263087;28;20033;-79
2023/08/23 10:17:32;;;;;;;8.18;5.63;;;;;;;30.29;39.75;101878.75;5263544;28;20067;-79
2023/08/23 10:20:11;;;;;;;6.47;4.60;;;;;;;30.58;39.57;101881.81;5263315;28;20114;-79
2023/08/23 10:22:43;;;;;;;10.73;5.80;;;;;;;30.71;39.11;101873.63;5263167;28;20056;-78
2023/08/23 10:25:19;;;;;;;8.32;5.68;;;;;;;31.17;39.88;101864.47;5263555;28;20115;-77
2023/08/23 10:27:55;;;;;;;9.90;4.82;;;;;;;31.81;37.44;101870.75;5263233;28;20043;-79
2023/08/23 10:30:28;;;;;;;6.93;4.60;;;;;;;31.58;35.85;101870.06;5263079;28;20115;-78
2023/08/23 10:33:10;;;;;;;8.35;4.97;;;;;;;30.46;37.21;101870.22;5262729;28;20021;-78
2023/08/23 10:35:44;;;;;;;8.73;5.43;;;;;;;30.14;37.38;101870.94;5263107;28;20033;-78
2023/08/23 10:38:16;;;;;;;9.20;5.03;;;;;;;30.28;38.34;101872.50;5263016;28;20124;-79
2023/08/23 10:40:47;;;;;;;8.25;6.25;;;;;;;28.54;39.77;101869.44;5263089;28;20029;-79
2023/08/23 10:43:20;;;;;;;8.60;4.50;;;;;;;28.80;39.91;101858.69;5262898;28;20064;-78
2023/08/23 10:46:02;;;;;;;9.85;4.85;;;;;;;29.52;39.35;101864.03;5244981;28;20028;-78
2023/08/23 10:48:34;;;;;;;;;;;;;;;31.67;34.95;101854.91;5263023;28;20029;-77
2023/08/23 10:51:06;;;;;;;6.00;3.78;;;;;;;30.23;37.13;101857.72;5262843;28;20246;-77
2023/08/23 10:53:40;;;;;;;9.23;4.80;;;;;;;31.02;35.33;101855.81;5262438;28;20036;-77
2023/08/23 10:56:12;;;;;;;7.80;4.72;;;;;;;32.02;33.39;101846.47;5262821;28;20380;-78
2023/08/23 10:58:44;;;;;;;8.15;4.50;;;;;;;32.68;32.72;101854.16;5264961;28;20056;-79
2023/08/23 11:01:15;;;;;;;7.63;4.75;;;;;;;32.54;31.69;101841.03;5262916;28;20044;-77
2023/08/23 11:03:47;;;;;;;9.23;5.47;;;;;;;31.27;34.84;101843.84;5261821;28;20033;-78
2023/08/23 11:06:18;;;;;;;10.50;5.75;;;;;;;30.91;36.33;101836.97;5262343;28;20091;-78
2023/08/23 11:08:51;;;;;;;8.57;4.70;;;;;;;31.23;34.26;101826.22;5262199;28;20068;-78
2023/08/23 11:11:27;;;;;;;8.35;4.65;;;;;;;31.21;33.46;101836.28;5262193;28;20028;-79
2023/08/23 11:13:59;;;;;;;7.57;3.60;;;;;;;31.88;31.59;101828.81;5262414;28;20037;-78
2023/08/23 11:16:30;;;;;;;5.65;3.35;;;;;;;33.23;32.47;101823.94;5262654;28;20170;-79
2023/08/23 11:19:03;;;;;;;5.85;4.93;;;;;;;32.89;30.68;101829.75;5262652;28;20029;-80
2023/08/23 11:21:35;;;;;;;10.68;4.82;;;;;;;33.02;30.90;101834.00;5262516;28;20025;-78
2023/08/23 11:24:07;;;;;;;6.90;3.65;;;;;;;34.37;30.71;101820.34;5266920;28;20163;-76
2023/08/23 11:26:38;;;;;;;8.80;4.00;;;;;;;34.87;28.96;101817.22;5250641;28;20037;-77
2023/08/23 11:29:10;;;;;;;6.85;4.10;;;;;;;34.35;27.69;101814.25;5266553;28;20501;-78
2023/08/23 11:31:41;;;;;;;7.47;4.07;;;;;;;33.95;29.88;101810.00;5266656;28;20120;-77
2023/08/23 11:34:12;;;;;;;6.38;4.28;;;;;;;33.98;29.89;101804.28;5266164;28;20049;-79
2023/08/23 11:36:44;;;;;;;7.85;3.75;;;;;;;33.80;28.69;101809.63;5266370;28;20029;-78
2023/08/23 11:39:16;;;;;;;7.25;3.10;;;;;;;34.64;27.56;101805.09;5266710;28;20112;-79
2023/08/23 11:41:49;;;;;;;8.90;3.42;;;;;;;34.73;25.46;101811.44;5266390;28;20040;-78
2023/08/23 11:44:21;;;;;;;5.07;3.13;;;;;;;34.55;27.49;101811.41;5266501;28;20041;-79
2023/08/23 11:46:52;;;;;;;8.73;4.70;;;;;;;33.67;28.49;101814.50;5266498;28;20029;-79